Santika Nusantara — POWQ — position and weather

sailwx.info

Track history (hours):
 
Tides and Currents Weather Stations Pressure Air Temp Water Temp Dewpoint Dewpoint Depression Visibility Wind Speed Wind Dir Waves Ship Positions

Santika Nusantara

Last reported at 2018-Apr-20 06:38 UTC. Time now 2018-Apr-23 19:35 UTC.
Position S 06°49' E 112°49'.

; draft 6 m.

Type: Passenger vessel. MMSI: 525002126.

Date/timePositionNaut miles runAvg speedWind from/ knotsBaromVisibWave heightAir tempDewpointWater temp
2018-Apr-20 06:38S 06°49' E 112°49'110.5
2018-Apr-20 06:30S 06°50' E 112°48'710.2
2018-Apr-20 05:50S 06°55' E 112°43'5 9.3
2018-Apr-20 05:17S 06°60' E 112°41'410.3
2018-Apr-20 04:57S 07°03' E 112°40'510.1
2018-Apr-20 04:28S 07°08' E 112°40'5 9.7
2018-Apr-20 03:59S 07°12' E 112°43'1 2.4
2018-Apr-20 03:28S 07°12' E 112°44'0 0.0
2018-Apr-20 02:31S 07°12' E 112°44'0 0.0
2018-Apr-20 02:23S 07°12' E 112°44'0 0.0
2018-Apr-20 01:57S 07°12' E 112°44'0 0.0
2018-Apr-20 01:21S 07°12' E 112°44'0 0.0
2018-Apr-20 00:59S 07°12' E 112°44'0 0.0
2018-Apr-20 00:20S 07°12' E 112°44'0 0.0
2018-Apr-19 23:51S 07°12' E 112°44'0 0.0
2018-Apr-19 23:22S 07°12' E 112°44'0 0.0
2018-Apr-19 23:00S 07°12' E 112°44'0 0.0
2018-Apr-19 22:27S 07°12' E 112°44'0 0.0
2018-Apr-19 21:49S 07°12' E 112°44'0 0.0
2018-Apr-19 21:29S 07°12' E 112°44'0 0.0
2018-Apr-19 20:52S 07°12' E 112°44'0 0.0
2018-Apr-19 20:30S 07°12' E 112°44'0 0.0
2018-Apr-19 19:55S 07°12' E 112°44'0 0.0
2018-Apr-19 19:25S 07°12' E 112°44'0 0.1
2018-Apr-19 18:33S 07°12' E 112°44'0 2.8
2018-Apr-19 18:29S 07°12' E 112°44'4 8.0
2018-Apr-19 17:57S 07°09' E 112°40'611.3
2018-Apr-19 17:24S 07°03' E 112°40'1010.7
2018-Apr-19 16:29S 06°54' E 112°44'  
2018-Apr-14 02:36S 07°01' E 112°40'111.9
2018-Apr-14 02:30S 07°03' E 112°40'10 7.9
2018-Apr-14 01:14S 07°12' E 112°44'0 0.0
2018-Apr-14 00:52S 07°12' E 112°44'0 0.0
2018-Apr-14 00:11S 07°12' E 112°44'0 0.0
2018-Apr-13 23:39S 07°12' E 112°44'0 0.0
2018-Apr-13 23:30S 07°12' E 112°44'0 0.0
2018-Apr-13 22:41S 07°12' E 112°44'0 0.0
2018-Apr-13 22:20S 07°12' E 112°44'0 0.0
2018-Apr-13 21:53S 07°12' E 112°44'0 0.0
2018-Apr-13 21:28S 07°12' E 112°44'0 0.0
2018-Apr-13 20:56S 07°12' E 112°44'0 0.0
2018-Apr-13 20:22S 07°12' E 112°44'0 0.0
2018-Apr-13 19:53S 07°12' E 112°44'0 0.0
2018-Apr-13 19:24S 07°12' E 112°44'0 0.0
2018-Apr-13 18:47S 07°12' E 112°44'0 0.0
2018-Apr-13 17:53S 07°12' E 112°44'0 0.0
2018-Apr-13 17:13S 07°12' E 112°44'0 0.0
2018-Apr-13 17:00S 07°12' E 112°44'0 0.0
2018-Apr-13 16:30S 07°12' E 112°44'0 0.0
2018-Apr-13 15:59S 07°12' E 112°44'0 0.0
2018-Apr-13 15:27S 07°12' E 112°44'0 0.0
2018-Apr-13 14:58S 07°12' E 112°44'0 0.0
2018-Apr-13 14:28S 07°12' E 112°44'0 0.0
2018-Apr-13 13:58S 07°12' E 112°44'0 0.0
2018-Apr-13 13:24S 07°12' E 112°44'0 0.0
2018-Apr-13 12:43S 07°12' E 112°44'0 0.0
2018-Apr-13 12:21S 07°12' E 112°44'2 2.8
2018-Apr-13 11:42S 07°11' E 112°42'211.2
2018-Apr-13 11:29S 07°10' E 112°40'612.7
2018-Apr-13 11:00S 07°04' E 112°40'  
Track history (hours):
 
Tides and Currents Weather Stations Pressure Air Temp Water Temp Dewpoint Dewpoint Depression Visibility Wind Speed Wind Dir Waves Ship Positions

Santika Nusantara

Last reported at 2018-Apr-20 06:38 UTC. Time now 2018-Apr-23 19:35 UTC.
Position S 06°49' E 112°49'.

; draft 6 m.

Type: Passenger vessel. MMSI: 525002126.

Date/timePositionNaut miles runAvg speedWind from/ knotsBaromVisibWave heightAir tempDewpointWater temp
2018-Apr-20 06:38S 06°49' E 112°49'110.5
2018-Apr-20 06:30S 06°50' E 112°48'710.2
2018-Apr-20 05:50S 06°55' E 112°43'5 9.3
2018-Apr-20 05:17S 06°60' E 112°41'410.3
2018-Apr-20 04:57S 07°03' E 112°40'510.1
2018-Apr-20 04:28S 07°08' E 112°40'5 9.7
2018-Apr-20 03:59S 07°12' E 112°43'1 2.4
2018-Apr-20 03:28S 07°12' E 112°44'0 0.0
2018-Apr-20 02:31S 07°12' E 112°44'0 0.0
2018-Apr-20 02:23S 07°12' E 112°44'0 0.0
2018-Apr-20 01:57S 07°12' E 112°44'0 0.0
2018-Apr-20 01:21S 07°12' E 112°44'0 0.0
2018-Apr-20 00:59S 07°12' E 112°44'0 0.0
2018-Apr-20 00:20S 07°12' E 112°44'0 0.0
2018-Apr-19 23:51S 07°12' E 112°44'0 0.0
2018-Apr-19 23:22S 07°12' E 112°44'0 0.0
2018-Apr-19 23:00S 07°12' E 112°44'0 0.0
2018-Apr-19 22:27S 07°12' E 112°44'0 0.0
2018-Apr-19 21:49S 07°12' E 112°44'0 0.0
2018-Apr-19 21:29S 07°12' E 112°44'0 0.0
2018-Apr-19 20:52S 07°12' E 112°44'0 0.0
2018-Apr-19 20:30S 07°12' E 112°44'0 0.0
2018-Apr-19 19:55S 07°12' E 112°44'0 0.0
2018-Apr-19 19:25S 07°12' E 112°44'0 0.1
2018-Apr-19 18:33S 07°12' E 112°44'0 2.8
2018-Apr-19 18:29S 07°12' E 112°44'4 8.0
2018-Apr-19 17:57S 07°09' E 112°40'611.3
2018-Apr-19 17:24S 07°03' E 112°40'1010.7
2018-Apr-19 16:29S 06°54' E 112°44'  
2018-Apr-14 02:36S 07°01' E 112°40'111.9
2018-Apr-14 02:30S 07°03' E 112°40'10 7.9
2018-Apr-14 01:14S 07°12' E 112°44'0 0.0
2018-Apr-14 00:52S 07°12' E 112°44'0 0.0
2018-Apr-14 00:11S 07°12' E 112°44'0 0.0
2018-Apr-13 23:39S 07°12' E 112°44'0 0.0
2018-Apr-13 23:30S 07°12' E 112°44'0 0.0
2018-Apr-13 22:41S 07°12' E 112°44'0 0.0
2018-Apr-13 22:20S 07°12' E 112°44'0 0.0
2018-Apr-13 21:53S 07°12' E 112°44'0 0.0
2018-Apr-13 21:28S 07°12' E 112°44'0 0.0
2018-Apr-13 20:56S 07°12' E 112°44'0 0.0
2018-Apr-13 20:22S 07°12' E 112°44'0 0.0
2018-Apr-13 19:53S 07°12' E 112°44'0 0.0
2018-Apr-13 19:24S 07°12' E 112°44'0 0.0
2018-Apr-13 18:47S 07°12' E 112°44'0 0.0
2018-Apr-13 17:53S 07°12' E 112°44'0 0.0
2018-Apr-13 17:13S 07°12' E 112°44'0 0.0
2018-Apr-13 17:00S 07°12' E 112°44'0 0.0
2018-Apr-13 16:30S 07°12' E 112°44'0 0.0
2018-Apr-13 15:59S 07°12' E 112°44'0 0.0
2018-Apr-13 15:27S 07°12' E 112°44'0 0.0
2018-Apr-13 14:58S 07°12' E 112°44'0 0.0
2018-Apr-13 14:28S 07°12' E 112°44'0 0.0
2018-Apr-13 13:58S 07°12' E 112°44'0 0.0
2018-Apr-13 13:24S 07°12' E 112°44'0 0.0
2018-Apr-13 12:43S 07°12' E 112°44'0 0.0
2018-Apr-13 12:21S 07°12' E 112°44'2 2.8
2018-Apr-13 11:42S 07°11' E 112°42'211.2
2018-Apr-13 11:29S 07°10' E 112°40'612.7
2018-Apr-13 11:00S 07°04' E 112°40'  

Dump ship's entire track history